Time;durP1;ratioP1;P1;durP2;ratioP2;P2;SDS_P1;SDS_P2;PMS_P1;PMS_P2;Temp;Humidity;BMP_temperature;BMP_pressure;BME280_temperature;BME280_humidity;BME280_pressure;Samples;Min_cycle;Max_cycle;Signal;HPM_P1;HPM_P2
2021/03/04 00:01:21;;;;;;;364.02;72.85;;;;;;;;;;4996571;28;20038;-68
2021/03/04 00:03:47;;;;;;;394.15;70.15;;;;;;;;;;5007256;28;20029;-68
2021/03/04 00:06:12;;;;;;;323.98;71.93;;;;;;;;;;5005168;28;20038;-69
2021/03/04 00:08:37;;;;;;;286.00;71.53;;;;;;;;;;4996682;28;20022;-68
2021/03/04 00:11:02;;;;;;;291.98;69.50;;;;;;;;;;4996741;28;20061;-68
2021/03/04 00:13:27;;;;;;;390.25;70.63;;;;;;;;;;4996438;28;20034;-68
2021/03/04 00:15:54;;;;;;;295.85;67.50;;;;;;;;;;4996542;28;20038;-68
2021/03/04 00:18:19;;;;;;;308.85;69.72;;;;;;;;;;4996565;28;20109;-67
2021/03/04 00:20:45;;;;;;;296.58;68.32;;;;;;;;;;4996501;28;20671;-67
2021/03/04 00:23:10;;;;;;;338.58;72.97;;;;;;;;;;4996441;28;20033;-68
2021/03/04 00:25:35;;;;;;;279.05;67.30;;;;;;;;;;4996758;28;20026;-68
2021/03/04 00:28:01;;;;;;;335.50;73.07;;;;;;;;;;4996158;28;20034;-68
2021/03/04 00:30:27;;;;;;;309.58;71.32;;;;;;;;;;4996013;28;20031;-67
2021/03/04 00:32:52;;;;;;;326.60;71.07;;;;;;;;;;4996341;28;20026;-68
2021/03/04 00:35:17;;;;;;;357.40;74.90;;;;;;;;;;4995823;28;20051;-68
2021/03/04 00:37:43;;;;;;;400.42;73.88;;;;;;;;;;4996264;28;20033;-67
2021/03/04 00:40:09;;;;;;;408.13;77.82;;;;;;;;;;4996047;28;20030;-68
2021/03/04 00:42:35;;;;;;;476.52;77.50;;;;;;;;;;5006492;28;20069;-68
2021/03/04 00:45:01;;;;;;;454.63;80.35;;;;;;;;;;5005410;28;20074;-68
2021/03/04 00:47:26;;;;;;;488.17;81.40;;;;;;;;;;5015325;28;20104;-67
2021/03/04 00:49:52;;;;;;;431.15;80.35;;;;;;;;;;5015529;28;20038;-67
2021/03/04 00:52:17;;;;;;;376.15;71.47;;;;;;;;;;5015557;28;20026;-68
2021/03/04 00:54:42;;;;;;;504.15;77.30;;;;;;;;;;5014318;28;20030;-68
2021/03/04 00:57:07;;;;;;;407.42;76.90;;;;;;;;;;5015315;28;20034;-67
2021/03/04 00:59:33;;;;;;;339.65;74.40;;;;;;;;;;5015238;28;20018;-67
2021/03/04 01:01:58;;;;;;;394.10;74.13;;;;;;;;;;5015331;28;20033;-68
2021/03/04 01:04:23;;;;;;;378.52;73.70;;;;;;;;;;4996870;28;20038;-67
2021/03/04 01:06:48;;;;;;;304.67;69.75;;;;;;;;;;4995415;28;20030;-68
2021/03/04 01:09:14;;;;;;;380.95;71.97;;;;;;;;;;4995494;28;20034;-68
2021/03/04 01:11:39;;;;;;;361.85;74.82;;;;;;;;;;4995693;28;20038;-68
2021/03/04 01:14:04;;;;;;;317.23;68.50;;;;;;;;;;4995456;28;20025;-69
2021/03/04 01:16:30;;;;;;;309.05;73.63;;;;;;;;;;4995396;28;20096;-68
2021/03/04 01:18:55;;;;;;;301.45;73.50;;;;;;;;;;4994122;28;20373;-68
2021/03/04 01:21:20;;;;;;;371.52;76.07;;;;;;;;;;4995395;28;20031;-67
2021/03/04 01:23:45;;;;;;;295.33;71.32;;;;;;;;;;4995279;28;20045;-68
2021/03/04 01:26:11;;;;;;;351.40;72.47;;;;;;;;;;4995328;28;20065;-67
2021/03/04 01:28:36;;;;;;;370.75;72.68;;;;;;;;;;4995353;28;20026;-67
2021/03/04 01:31:01;;;;;;;336.33;72.60;;;;;;;;;;4995163;28;20030;-68
2021/03/04 01:33:27;;;;;;;314.00;69.07;;;;;;;;;;4995167;28;20034;-67
2021/03/04 01:35:52;;;;;;;367.48;75.88;;;;;;;;;;4994710;28;20395;-67
2021/03/04 01:38:17;;;;;;;308.65;71.30;;;;;;;;;;4995074;28;20045;-68
2021/03/04 01:40:42;;;;;;;342.67;76.07;;;;;;;;;;4994988;28;20038;-68
2021/03/04 01:43:08;;;;;;;370.08;76.70;;;;;;;;;;5009699;28;20022;-67
2021/03/04 01:45:33;;;;;;;380.67;74.90;;;;;;;;;;4997798;28;20109;-68
2021/03/04 01:47:59;;;;;;;307.33;70.68;;;;;;;;;;4993927;28;20089;-68
2021/03/04 01:50:25;;;;;;;433.13;77.47;;;;;;;;;;4994449;28;20030;-68
2021/03/04 01:52:51;;;;;;;316.80;74.20;;;;;;;;;;4994880;28;20038;-67
2021/03/04 01:55:17;;;;;;;305.05;73.60;;;;;;;;;;4986468;28;20387;-67
2021/03/04 01:57:43;;;;;;;307.83;72.15;;;;;;;;;;4992875;28;20452;-67
2021/03/04 02:00:09;;;;;;;308.15;72.82;;;;;;;;;;4993589;28;20041;-68
2021/03/04 02:02:35;;;;;;;345.95;74.78;;;;;;;;;;4994662;28;20030;-67
2021/03/04 02:05:00;;;;;;;330.55;74.70;;;;;;;;;;4994876;28;20026;-67
2021/03/04 02:07:34;;;;;;;312.13;72.22;;;;;;;;;;4993902;28;20526;-68
2021/03/04 02:10:22;;;;;;;282.52;68.95;;;;;;;;;;4994403;28;20035;-67
2021/03/04 02:12:48;;;;;;;323.30;69.13;;;;;;;;;;4993764;28;20042;-67
2021/03/04 02:15:16;;;;;;;347.92;71.03;;;;;;;;;;4994160;28;20049;-67
2021/03/04 02:17:44;;;;;;;305.00;72.78;;;;;;;;;;4994132;28;20474;-67
2021/03/04 02:20:12;;;;;;;351.73;72.53;;;;;;;;;;4994208;28;20057;-68
2021/03/04 02:22:56;;;;;;;481.58;75.40;;;;;;;;;;4994407;28;20109;-67
2021/03/04 02:25:30;;;;;;;256.08;66.75;;;;;;;;;;4994032;28;20109;-67
2021/03/04 02:27:56;;;;;;;295.52;69.40;;;;;;;;;;4994287;28;20065;-67
2021/03/04 02:30:27;;;;;;;448.27;73.75;;;;;;;;;;4993791;28;20117;-67
2021/03/04 02:32:57;;;;;;;224.13;58.55;;;;;;;;;;4994248;28;20041;-67
2021/03/04 02:35:28;;;;;;;273.83;63.67;;;;;;;;;;4993894;28;20043;-67
2021/03/04 02:37:55;;;;;;;223.98;58.95;;;;;;;;;;4994093;28;20110;-67
2021/03/04 02:40:21;;;;;;;209.75;54.97;;;;;;;;;;4993917;28;20031;-67
2021/03/04 02:42:48;;;;;;;192.77;53.33;;;;;;;;;;4993999;28;20030;-68
2021/03/04 02:45:14;;;;;;;191.18;55.25;;;;;;;;;;4993465;28;20487;-67
2021/03/04 02:47:39;;;;;;;225.77;53.75;;;;;;;;;;4993990;28;20054;-67
2021/03/04 02:50:09;;;;;;;165.48;49.45;;;;;;;;;;4993791;28;20054;-67
2021/03/04 02:52:34;;;;;;;183.95;48.47;;;;;;;;;;4993968;28;20034;-67
2021/03/04 02:55:01;;;;;;;168.30;48.00;;;;;;;;;;4993365;28;20459;-67
2021/03/04 02:57:26;;;;;;;159.18;45.83;;;;;;;;;;4993525;28;20476;-67
2021/03/04 02:59:52;;;;;;;174.30;47.05;;;;;;;;;;4993699;28;20037;-68
2021/03/04 03:02:18;;;;;;;156.48;46.47;;;;;;;;;;4993503;28;20384;-67
2021/03/04 03:04:44;;;;;;;156.30;45.72;;;;;;;;;;4993700;28;20035;-67
2021/03/04 03:07:10;;;;;;;156.45;47.17;;;;;;;;;;4993657;28;20117;-68
2021/03/04 03:09:37;;;;;;;152.60;47.72;;;;;;;;;;4993674;28;20771;-67
2021/03/04 03:12:03;;;;;;;141.98;42.83;;;;;;;;;;4993416;28;20491;-67
2021/03/04 03:14:28;;;;;;;131.77;41.58;;;;;;;;;;4993275;28;20038;-67
2021/03/04 03:16:54;;;;;;;134.13;39.88;;;;;;;;;;4993688;28;20041;-66
2021/03/04 03:19:19;;;;;;;131.23;38.83;;;;;;;;;;4997136;28;20037;-67
2021/03/04 03:21:44;;;;;;;122.65;38.17;;;;;;;;;;4997741;28;20545;-68
2021/03/04 03:24:09;;;;;;;118.00;38.50;;;;;;;;;;5016429;28;20018;-68
2021/03/04 03:26:36;;;;;;;127.82;38.83;;;;;;;;;;5017313;28;20029;-68
2021/03/04 03:29:01;;;;;;;95.28;32.75;;;;;;;;;;5017030;28;20080;-67
2021/03/04 03:31:27;;;;;;;109.50;35.10;;;;;;;;;;5017098;28;20049;-68
2021/03/04 03:33:53;;;;;;;93.97;31.73;;;;;;;;;;5016797;28;20026;-68
2021/03/04 03:36:20;;;;;;;91.95;31.38;;;;;;;;;;5016793;28;20124;-68
2021/03/04 03:38:45;;;;;;;112.53;31.40;;;;;;;;;;5017089;28;20049;-67
2021/03/04 03:41:11;;;;;;;101.35;33.17;;;;;;;;;;5016748;28;20120;-67
2021/03/04 03:43:37;;;;;;;80.07;28.40;;;;;;;;;;4998048;28;20030;-67
2021/03/04 03:46:03;;;;;;;74.25;27.58;;;;;;;;;;4997170;28;20053;-67
2021/03/04 03:48:29;;;;;;;82.63;29.73;;;;;;;;;;4997416;28;20042;-67
2021/03/04 03:50:55;;;;;;;74.72;25.63;;;;;;;;;;4997082;28;20383;-67
2021/03/04 03:53:21;;;;;;;58.70;24.23;;;;;;;;;;4996864;28;20467;-67
2021/03/04 03:55:50;;;;;;;58.92;24.08;;;;;;;;;;4996906;28;20042;-67
2021/03/04 03:58:16;;;;;;;57.50;22.17;;;;;;;;;;4996882;28;20034;-67
2021/03/04 04:00:42;;;;;;;56.10;22.08;;;;;;;;;;4996771;28;20015;-67
2021/03/04 04:03:08;;;;;;;67.35;22.98;;;;;;;;;;4996913;28;20049;-67
2021/03/04 04:05:35;;;;;;;61.95;24.50;;;;;;;;;;4996423;28;20402;-67
2021/03/04 04:08:00;;;;;;;68.20;24.38;;;;;;;;;;4996512;28;20384;-66
2021/03/04 04:10:27;;;;;;;62.75;26.02;;;;;;;;;;4996569;28;20033;-67
2021/03/04 04:12:52;;;;;;;69.43;24.25;;;;;;;;;;4996778;28;20031;-67
2021/03/04 04:15:18;;;;;;;52.28;19.35;;;;;;;;;;4996200;28;20458;-67
2021/03/04 04:17:43;;;;;;;62.25;24.27;;;;;;;;;;4996719;28;20062;-67
2021/03/04 04:20:09;;;;;;;63.67;22.83;;;;;;;;;;4996500;28;20399;-66
2021/03/04 04:22:34;;;;;;;58.28;22.10;;;;;;;;;;4996343;28;20101;-67
2021/03/04 04:25:00;;;;;;;61.97;21.77;;;;;;;;;;4996397;28;20042;-67
2021/03/04 04:27:26;;;;;;;60.95;21.73;;;;;;;;;;4996197;28;20038;-67
2021/03/04 04:29:51;;;;;;;65.07;22.83;;;;;;;;;;4994837;28;20463;-67
2021/03/04 04:32:16;;;;;;;59.53;22.35;;;;;;;;;;4996385;28;20105;-66
2021/03/04 04:34:42;;;;;;;64.22;22.40;;;;;;;;;;4995970;28;20117;-67
2021/03/04 04:37:07;;;;;;;69.82;21.42;;;;;;;;;;4995551;28;20031;-67
2021/03/04 04:39:32;;;;;;;50.35;19.40;;;;;;;;;;4996439;28;20459;-67
2021/03/04 04:41:57;;;;;;;49.92;18.35;;;;;;;;;;5001394;28;20037;-67
2021/03/04 04:44:23;;;;;;;47.17;18.63;;;;;;;;;;5015324;28;20103;-67
2021/03/04 04:46:48;;;;;;;50.85;19.00;;;;;;;;;;5015823;28;20042;-67
2021/03/04 04:49:13;;;;;;;48.22;18.27;;;;;;;;;;5015486;28;20404;-67
2021/03/04 04:51:38;;;;;;;46.83;17.63;;;;;;;;;;5015576;28;20080;-67
2021/03/04 04:54:03;;;;;;;52.53;18.73;;;;;;;;;;5015692;28;20034;-67
2021/03/04 04:56:29;;;;;;;54.30;19.33;;;;;;;;;;5015260;28;20120;-67
2021/03/04 04:58:54;;;;;;;49.15;18.33;;;;;;;;;;4994384;28;20479;-66
2021/03/04 05:01:19;;;;;;;46.90;18.35;;;;;;;;;;4994797;28;20479;-67
2021/03/04 05:03:45;;;;;;;45.65;16.73;;;;;;;;;;4994946;28;20124;-67
2021/03/04 05:06:10;;;;;;;53.47;17.92;;;;;;;;;;4995287;28;20053;-67
2021/03/04 05:08:35;;;;;;;45.63;17.73;;;;;;;;;;4995789;28;20026;-68
2021/03/04 05:11:00;;;;;;;44.65;16.38;;;;;;;;;;4995588;28;20045;-68
2021/03/04 05:13:26;;;;;;;44.08;16.35;;;;;;;;;;4995553;28;20456;-68
2021/03/04 05:15:51;;;;;;;42.58;16.30;;;;;;;;;;4995490;28;20038;-67
2021/03/04 05:18:16;;;;;;;35.80;16.52;;;;;;;;;;4995521;28;20411;-67
2021/03/04 05:20:41;;;;;;;34.33;14.48;;;;;;;;;;4995092;28;20022;-68
2021/03/04 05:23:07;;;;;;;43.67;16.25;;;;;;;;;;4995545;28;20031;-68
2021/03/04 05:25:32;;;;;;;44.00;16.90;;;;;;;;;;4995242;28;20529;-68
2021/03/04 05:27:57;;;;;;;43.78;15.55;;;;;;;;;;4995461;28;20484;-67
2021/03/04 05:30:23;;;;;;;48.42;17.50;;;;;;;;;;4995233;28;20042;-67
2021/03/04 05:32:48;;;;;;;44.35;16.60;;;;;;;;;;4995027;28;20072;-67
2021/03/04 05:35:13;;;;;;;42.67;16.83;;;;;;;;;;4994981;28;20018;-67
2021/03/04 05:37:38;;;;;;;42.92;16.08;;;;;;;;;;4995227;28;20058;-67
2021/03/04 05:40:04;;;;;;;41.03;16.25;;;;;;;;;;4994547;28;20038;-66
2021/03/04 05:42:30;;;;;;;41.33;16.80;;;;;;;;;;4995003;28;20069;-66
2021/03/04 05:44:55;;;;;;;41.60;16.92;;;;;;;;;;4995024;28;20050;-66
2021/03/04 05:47:21;;;;;;;43.45;16.40;;;;;;;;;;4994975;28;20485;-67
2021/03/04 05:49:47;;;;;;;47.08;17.70;;;;;;;;;;4994914;28;20038;-67
2021/03/04 05:52:15;;;;;;;44.45;17.25;;;;;;;;;;4994853;28;20030;-67
2021/03/04 05:54:42;;;;;;;52.42;16.67;;;;;;;;;;4994785;28;20401;-66
2021/03/04 05:57:07;;;;;;;50.00;17.05;;;;;;;;;;4994793;28;20041;-66
2021/03/04 05:59:34;;;;;;;53.95;16.55;;;;;;;;;;4994862;28;20038;-66
2021/03/04 06:02:01;;;;;;;45.10;16.05;;;;;;;;;;4994502;28;20695;-66
2021/03/04 06:04:26;;;;;;;43.25;14.45;;;;;;;;;;4994543;28;20427;-67
2021/03/04 06:06:51;;;;;;;39.05;13.13;;;;;;;;;;4994647;28;20065;-67
2021/03/04 06:09:16;;;;;;;44.20;14.80;;;;;;;;;;4994263;28;20042;-66
2021/03/04 06:11:42;;;;;;;45.33;15.15;;;;;;;;;;4993188;28;20022;-67
2021/03/04 06:14:07;;;;;;;38.00;13.45;;;;;;;;;;4994560;28;20022;-66
2021/03/04 06:16:32;;;;;;;30.92;11.95;;;;;;;;;;4993965;28;20516;-68
2021/03/04 06:18:58;;;;;;;33.28;12.23;;;;;;;;;;4994507;28;20014;-68
2021/03/04 06:21:23;;;;;;;38.95;12.60;;;;;;;;;;4994253;28;20371;-68
2021/03/04 06:23:49;;;;;;;37.42;12.55;;;;;;;;;;4994393;28;20046;-68
2021/03/04 06:26:26;;;;;;;33.15;12.75;;;;;;;;;;4994115;28;20014;-68
2021/03/04 06:28:51;;;;;;;35.78;11.32;;;;;;;;;;4994084;28;20019;-67
2021/03/04 06:31:17;;;;;;;33.10;11.57;;;;;;;;;;4993972;28;20535;-67
2021/03/04 06:33:42;;;;;;;32.33;12.30;;;;;;;;;;4993915;28;20475;-67
2021/03/04 06:36:12;;;;;;;33.55;11.90;;;;;;;;;;4994005;28;20077;-68
2021/03/04 06:38:38;;;;;;;40.22;13.07;;;;;;;;;;4994151;28;20034;-67
2021/03/04 06:41:03;;;;;;;34.95;12.30;;;;;;;;;;4993993;28;20101;-68
2021/03/04 06:43:28;;;;;;;36.58;13.88;;;;;;;;;;5011544;28;20105;-68
2021/03/04 06:46:04;;;;;;;45.30;14.43;;;;;;;;;;5013562;28;20394;-67
2021/03/04 06:48:29;;;;;;;33.97;13.70;;;;;;;;;;5013706;28;20471;-67
2021/03/04 06:50:59;;;;;;;40.85;13.68;;;;;;;;;;5013476;28;20049;-67
2021/03/04 06:53:25;;;;;;;31.02;13.27;;;;;;;;;;5012896;28;20026;-66
2021/03/04 06:55:54;;;;;;;39.42;15.10;;;;;;;;;;5013316;28;20076;-67
2021/03/04 06:58:26;;;;;;;44.53;14.60;;;;;;;;;;5013457;28;20038;-67
2021/03/04 07:01:01;;;;;;;47.97;18.30;;;;;;;;;;5013411;28;20037;-66
2021/03/04 07:03:33;;;;;;;44.58;15.75;;;;;;;;;;5013142;28;20416;-67
2021/03/04 07:05:59;;;;;;;52.35;18.80;;;;;;;;;;5013355;28;20122;-67
2021/03/04 07:08:24;;;;;;;51.92;16.50;;;;;;;;;;5013339;28;20112;-68
2021/03/04 07:10:49;;;;;;;51.35;16.42;;;;;;;;;;5013304;28;20040;-67
2021/03/04 07:13:15;;;;;;;54.08;18.08;;;;;;;;;;5013305;28;20065;-68
2021/03/04 07:15:40;;;;;;;51.83;16.90;;;;;;;;;;5013139;28;20042;-67
2021/03/04 07:18:05;;;;;;;56.10;17.65;;;;;;;;;;5013293;28;20029;-68
2021/03/04 07:20:31;;;;;;;51.40;17.23;;;;;;;;;;5011944;28;20028;-67
2021/03/04 07:22:56;;;;;;;55.53;18.70;;;;;;;;;;5013104;28;20493;-67
2021/03/04 07:25:22;;;;;;;53.90;18.42;;;;;;;;;;5012808;28;20088;-67
2021/03/04 07:27:47;;;;;;;56.33;17.33;;;;;;;;;;5013169;28;20044;-67
2021/03/04 07:30:14;;;;;;;52.60;17.63;;;;;;;;;;5013048;28;20030;-67
2021/03/04 07:32:41;;;;;;;58.58;18.63;;;;;;;;;;5013225;28;20450;-66
2021/03/04 07:35:10;;;;;;;47.53;17.60;;;;;;;;;;5012652;28;20030;-67
2021/03/04 07:37:38;;;;;;;57.03;18.23;;;;;;;;;;5013158;28;20112;-67
2021/03/04 07:40:04;;;;;;;50.92;17.27;;;;;;;;;;5011683;28;20017;-67
2021/03/04 07:42:29;;;;;;;60.80;18.90;;;;;;;;;;4994922;28;20030;-67
2021/03/04 07:44:55;;;;;;;48.92;16.17;;;;;;;;;;4985751;28;20069;-68
2021/03/04 07:47:27;;;;;;;54.03;17.73;;;;;;;;;;4973944;28;20029;-67
2021/03/04 07:49:53;;;;;;;58.42;18.35;;;;;;;;;;4973952;28;20027;-67
2021/03/04 07:52:19;;;;;;;56.80;19.20;;;;;;;;;;4973649;28;20438;-67
2021/03/04 07:54:47;;;;;;;56.80;18.85;;;;;;;;;;4973895;28;20027;-67
2021/03/04 07:57:14;;;;;;;58.38;18.75;;;;;;;;;;4974728;28;20395;-67
2021/03/04 07:59:59;;;;;;;65.72;19.65;;;;;;;;;;5011259;28;20046;-68
2021/03/04 08:02:26;;;;;;;52.38;17.50;;;;;;;;;;4971449;28;20103;-67
2021/03/04 08:04:51;;;;;;;60.50;19.83;;;;;;;;;;4975524;28;20069;-67
2021/03/04 08:07:23;;;;;;;40.13;16.95;;;;;;;;;;4977226;28;20050;-67
2021/03/04 08:09:48;;;;;;;55.20;17.67;;;;;;;;;;4979845;28;20027;-67
2021/03/04 08:12:16;;;;;;;53.55;18.65;;;;;;;;;;4985429;28;20034;-67
2021/03/04 08:14:54;;;;;;;55.30;18.65;;;;;;;;;;4996619;28;20019;-67
2021/03/04 08:17:19;;;;;;;63.13;20.70;;;;;;;;;;4996490;28;20125;-68
2021/03/04 08:19:46;;;;;;;69.55;21.15;;;;;;;;;;4996630;28;20117;-67
2021/03/04 08:22:12;;;;;;;60.20;19.63;;;;;;;;;;4996578;28;20026;-67
2021/03/04 08:24:38;;;;;;;59.47;18.70;;;;;;;;;;4996602;28;20033;-67
2021/03/04 08:27:04;;;;;;;61.55;20.25;;;;;;;;;;4996150;28;20141;-67
2021/03/04 08:29:30;;;;;;;66.25;19.90;;;;;;;;;;4996489;28;20026;-67
2021/03/04 08:31:56;;;;;;;70.65;22.00;;;;;;;;;;4986057;28;20081;-67
2021/03/04 08:34:21;;;;;;;62.22;19.73;;;;;;;;;;4993690;28;20038;-67
2021/03/04 08:36:48;;;;;;;65.18;21.27;;;;;;;;;;4996217;28;20122;-67
2021/03/04 08:39:14;;;;;;;70.45;21.67;;;;;;;;;;4981720;28;20072;-67
2021/03/04 08:41:39;;;;;;;65.70;20.27;;;;;;;;;;5005472;28;20479;-68
2021/03/04 08:44:08;;;;;;;62.60;20.90;;;;;;;;;;5003230;28;20041;-67
2021/03/04 08:46:34;;;;;;;71.65;21.33;;;;;;;;;;4980655;28;20030;-67
2021/03/04 08:48:59;;;;;;;68.93;20.38;;;;;;;;;;4992360;28;20061;-68
2021/03/04 08:51:24;;;;;;;70.40;22.27;;;;;;;;;;4988788;28;20014;-68
2021/03/04 08:53:50;;;;;;;60.60;21.40;;;;;;;;;;4992771;28;20023;-67
2021/03/04 08:56:15;;;;;;;74.07;22.95;;;;;;;;;;4990794;28;20373;-68
2021/03/04 08:58:44;;;;;;;70.13;21.90;;;;;;;;;;4994912;28;20018;-67
2021/03/04 09:01:10;;;;;;;68.75;21.75;;;;;;;;;;4985694;28;20045;-68
2021/03/04 09:03:37;;;;;;;79.10;21.27;;;;;;;;;;4992304;28;20035;-67
2021/03/04 09:06:20;;;;;;;63.33;20.67;;;;;;;;;;4991742;28;20080;-68
2021/03/04 09:08:49;;;;;;;65.55;20.58;;;;;;;;;;4989011;28;20181;-68
2021/03/04 09:11:34;;;;;;;73.93;21.85;;;;;;;;;;4991814;28;20034;-67
2021/03/04 09:14:01;;;;;;;76.38;22.88;;;;;;;;;;4989350;28;20031;-67
2021/03/04 09:16:26;;;;;;;67.13;20.67;;;;;;;;;;4989729;28;20142;-67
2021/03/04 09:18:51;;;;;;;68.45;22.05;;;;;;;;;;4991263;28;20101;-67
2021/03/04 09:21:19;;;;;;;69.18;19.95;;;;;;;;;;4990187;28;20109;-68
2021/03/04 09:23:45;;;;;;;64.85;21.02;;;;;;;;;;4991175;28;20034;-67
2021/03/04 09:26:10;;;;;;;69.70;22.17;;;;;;;;;;4985140;28;20022;-67
2021/03/04 09:28:36;;;;;;;59.08;20.38;;;;;;;;;;4989720;28;20047;-67
2021/03/04 09:31:08;;;;;;;67.47;22.70;;;;;;;;;;4988698;28;20049;-67
2021/03/04 09:33:33;;;;;;;68.28;21.48;;;;;;;;;;4989270;28;20031;-67
2021/03/04 09:36:00;;;;;;;61.45;19.83;;;;;;;;;;4991997;28;20087;-67
2021/03/04 09:38:26;;;;;;;64.15;19.60;;;;;;;;;;5000931;28;20165;-68
2021/03/04 09:40:52;;;;;;;58.42;21.15;;;;;;;;;;5001035;28;20029;-68
2021/03/04 09:43:19;;;;;;;70.78;20.63;;;;;;;;;;5001344;28;20030;-68
2021/03/04 09:45:46;;;;;;;62.85;20.33;;;;;;;;;;4998738;28;20204;-67
2021/03/04 09:48:12;;;;;;;63.67;19.90;;;;;;;;;;5005330;28;20045;-67
2021/03/04 09:50:37;;;;;;;62.65;19.35;;;;;;;;;;4996624;28;20460;-68
2021/03/04 09:53:04;;;;;;;59.88;20.67;;;;;;;;;;4985662;28;20510;-67
2021/03/04 09:55:39;;;;;;;53.42;19.00;;;;;;;;;;4984787;28;20475;-68
2021/03/04 09:58:09;;;;;;;64.63;20.70;;;;;;;;;;4985441;28;20038;-68
2021/03/04 10:00:34;;;;;;;59.63;19.83;;;;;;;;;;4988653;28;20035;-67
2021/03/04 10:02:59;;;;;;;61.63;20.45;;;;;;;;;;4976224;28;20026;-67
2021/03/04 10:05:25;;;;;;;58.30;20.17;;;;;;;;;;4983964;28;20037;-67
2021/03/04 10:07:56;;;;;;;62.42;19.58;;;;;;;;;;4989315;28;20042;-67
2021/03/04 10:10:21;;;;;;;64.75;21.65;;;;;;;;;;4985508;28;20451;-67
2021/03/04 10:12:50;;;;;;;61.78;20.23;;;;;;;;;;4987097;28;20041;-67
2021/03/04 10:15:28;;;;;;;60.53;19.58;;;;;;;;;;4985182;28;20038;-67
2021/03/04 10:17:54;;;;;;;61.75;21.25;;;;;;;;;;4988224;28;20042;-68
2021/03/04 10:20:19;;;;;;;65.57;22.35;;;;;;;;;;4988104;28;20108;-67
2021/03/04 10:22:45;;;;;;;69.82;21.40;;;;;;;;;;4982859;28;20011;-67
2021/03/04 10:25:10;;;;;;;52.78;19.33;;;;;;;;;;4985535;28;20038;-67
2021/03/04 10:27:36;;;;;;;60.92;20.90;;;;;;;;;;4984359;28;20027;-68
2021/03/04 10:30:03;;;;;;;57.97;20.25;;;;;;;;;;4985984;28;20485;-68
2021/03/04 10:32:28;;;;;;;60.75;20.67;;;;;;;;;;4986985;28;20382;-67
2021/03/04 10:34:54;;;;;;;64.53;20.40;;;;;;;;;;4982580;28;20035;-67
2021/03/04 10:37:19;;;;;;;59.92;19.98;;;;;;;;;;4988483;28;20431;-67
2021/03/04 10:39:44;;;;;;;56.53;19.52;;;;;;;;;;4987802;28;20109;-67
2021/03/04 10:42:09;;;;;;;61.90;20.83;;;;;;;;;;4985777;28;20034;-67
2021/03/04 10:44:35;;;;;;;62.42;21.42;;;;;;;;;;4972883;28;20058;-68
2021/03/04 10:47:00;;;;;;;64.40;21.23;;;;;;;;;;4983680;28;20541;-67
2021/03/04 10:49:27;;;;;;;58.42;19.98;;;;;;;;;;4982423;28;20049;-67
2021/03/04 10:51:53;;;;;;;61.92;21.77;;;;;;;;;;5003386;28;20025;-67
2021/03/04 10:54:18;;;;;;;75.78;23.27;;;;;;;;;;4999930;28;20038;-67
2021/03/04 10:56:43;;;;;;;57.83;20.00;;;;;;;;;;4989407;28;20046;-68
2021/03/04 10:59:09;;;;;;;58.97;20.35;;;;;;;;;;4984275;28;20655;-68
2021/03/04 11:01:35;;;;;;;53.88;19.08;;;;;;;;;;4985529;28;20031;-67
2021/03/04 11:04:00;;;;;;;61.30;21.00;;;;;;;;;;4986490;28;20445;-68
2021/03/04 11:06:25;;;;;;;61.53;18.25;;;;;;;;;;4984098;28;20029;-67
2021/03/04 11:08:50;;;;;;;57.25;18.45;;;;;;;;;;4982333;28;20041;-67
2021/03/04 11:11:16;;;;;;;52.13;19.85;;;;;;;;;;4983561;28;20085;-68
2021/03/04 11:13:41;;;;;;;51.22;18.35;;;;;;;;;;4980134;28;20438;-68
2021/03/04 11:16:06;;;;;;;53.17;19.42;;;;;;;;;;4983060;28;20364;-67
2021/03/04 11:18:32;;;;;;;56.60;19.85;;;;;;;;;;4985280;28;20483;-67
2021/03/04 11:20:57;;;;;;;62.58;21.40;;;;;;;;;;4978350;28;20058;-67
2021/03/04 11:23:22;;;;;;;58.20;20.23;;;;;;;;;;4985349;28;20030;-67
2021/03/04 11:25:48;;;;;;;65.38;20.83;;;;;;;;;;4978826;28;20213;-69
2021/03/04 11:28:13;;;;;;;57.22;20.30;;;;;;;;;;4981360;28;20021;-67
2021/03/04 11:30:38;;;;;;;62.13;20.73;;;;;;;;;;4982060;28;20590;-68
2021/03/04 11:33:04;;;;;;;61.78;20.33;;;;;;;;;;4982631;28;20042;-68
2021/03/04 11:35:33;;;;;;;57.50;19.05;;;;;;;;;;4981279;28;20042;-67
2021/03/04 11:37:58;;;;;;;49.97;17.00;;;;;;;;;;4979835;28;20498;-67
2021/03/04 11:40:23;;;;;;;49.40;17.33;;;;;;;;;;4986087;28;20030;-68
2021/03/04 11:42:49;;;;;;;55.35;19.02;;;;;;;;;;4987682;28;20026;-68
2021/03/04 11:45:14;;;;;;;56.92;20.33;;;;;;;;;;4990261;28;20054;-67
2021/03/04 11:47:40;;;;;;;55.80;18.60;;;;;;;;;;4986600;28;20122;-68
2021/03/04 11:50:06;;;;;;;64.28;20.60;;;;;;;;;;4988636;28;20053;-68
2021/03/04 11:52:31;;;;;;;60.15;19.65;;;;;;;;;;5006472;28;20074;-68
2021/03/04 11:54:56;;;;;;;58.58;20.75;;;;;;;;;;4992686;28;20120;-68
2021/03/04 11:57:22;;;;;;;48.72;15.82;;;;;;;;;;4992670;28;20375;-68
2021/03/04 11:59:47;;;;;;;53.60;16.92;;;;;;;;;;4986950;28;20030;-68
2021/03/04 12:02:12;;;;;;;49.92;16.35;;;;;;;;;;4983842;28;20070;-68
2021/03/04 12:04:38;;;;;;;51.13;17.63;;;;;;;;;;4987138;28;20026;-68
2021/03/04 12:07:03;;;;;;;45.53;16.73;;;;;;;;;;4996695;28;20068;-68
2021/03/04 12:09:28;;;;;;;44.45;14.70;;;;;;;;;;5002239;28;20042;-68
2021/03/04 12:11:54;;;;;;;43.97;15.70;;;;;;;;;;4993574;28;20041;-68
2021/03/04 12:14:19;;;;;;;42.53;14.80;;;;;;;;;;4987879;28;20037;-67
2021/03/04 12:16:45;;;;;;;47.55;15.73;;;;;;;;;;4990496;28;20045;-68
2021/03/04 12:19:11;;;;;;;46.13;15.35;;;;;;;;;;4988554;28;20018;-68
2021/03/04 12:21:36;;;;;;;41.55;14.80;;;;;;;;;;4992830;28;20065;-68
2021/03/04 12:24:01;;;;;;;44.90;16.13;;;;;;;;;;4985457;28;20044;-68
2021/03/04 12:26:28;;;;;;;45.25;15.98;;;;;;;;;;4989850;28;20026;-67
2021/03/04 12:28:53;;;;;;;46.80;16.45;;;;;;;;;;4990131;28;20034;-68
2021/03/04 12:31:19;;;;;;;45.22;16.05;;;;;;;;;;4991121;28;20049;-67
2021/03/04 12:33:44;;;;;;;51.60;15.95;;;;;;;;;;4988326;28;20032;-68
2021/03/04 12:36:09;;;;;;;46.00;16.10;;;;;;;;;;4993904;28;20034;-68
2021/03/04 12:38:34;;;;;;;40.05;14.32;;;;;;;;;;4988178;28;20852;-67
2021/03/04 12:41:00;;;;;;;44.30;15.43;;;;;;;;;;4990286;28;20856;-67
2021/03/04 12:43:25;;;;;;;40.60;15.10;;;;;;;;;;4986311;28;20042;-67
2021/03/04 12:45:50;;;;;;;50.83;15.60;;;;;;;;;;4986764;28;20053;-67
2021/03/04 12:48:15;;;;;;;54.10;15.90;;;;;;;;;;4986972;28;20023;-67
2021/03/04 12:50:41;;;;;;;43.78;15.88;;;;;;;;;;4988463;28;20038;-67
2021/03/04 12:53:06;;;;;;;45.92;15.68;;;;;;;;;;4987991;28;20049;-67
2021/03/04 12:55:31;;;;;;;49.83;15.73;;;;;;;;;;4987880;28;20030;-67
2021/03/04 12:57:57;;;;;;;39.75;13.93;;;;;;;;;;4990756;28;20034;-67
2021/03/04 13:00:22;;;;;;;41.38;14.63;;;;;;;;;;4992928;28;20034;-68
2021/03/04 13:02:47;;;;;;;44.08;15.90;;;;;;;;;;4997740;28;20021;-68
2021/03/04 13:05:13;;;;;;;41.50;15.23;;;;;;;;;;4987365;28;20030;-68
2021/03/04 13:07:40;;;;;;;40.47;15.25;;;;;;;;;;5004155;28;20734;-68
2021/03/04 13:10:05;;;;;;;40.70;14.38;;;;;;;;;;4987268;28;20397;-68
2021/03/04 13:12:30;;;;;;;43.80;15.30;;;;;;;;;;4990233;28;20034;-68
2021/03/04 13:14:56;;;;;;;40.85;14.98;;;;;;;;;;4985776;28;20042;-67
2021/03/04 13:17:21;;;;;;;40.00;15.52;;;;;;;;;;4990683;28;20074;-68
2021/03/04 13:19:47;;;;;;;33.08;13.80;;;;;;;;;;4989944;28;20034;-67
2021/03/04 13:22:12;;;;;;;41.95;16.67;;;;;;;;;;4990391;28;20088;-67
2021/03/04 13:24:38;;;;;;;44.47;15.98;;;;;;;;;;4989276;28;20030;-68
2021/03/04 13:27:03;;;;;;;35.25;15.90;;;;;;;;;;4994050;28;20546;-67
2021/03/04 13:29:28;;;;;;;31.48;13.55;;;;;;;;;;5005286;28;20402;-68
2021/03/04 13:31:53;;;;;;;37.47;16.45;;;;;;;;;;5009199;28;20033;-67
2021/03/04 13:34:19;;;;;;;38.40;14.45;;;;;;;;;;5008285;28;20112;-68
2021/03/04 13:36:44;;;;;;;33.03;14.70;;;;;;;;;;5001451;28;20046;-67
2021/03/04 13:39:10;;;;;;;38.53;14.77;;;;;;;;;;4995327;28;20383;-67
2021/03/04 13:41:35;;;;;;;37.33;15.05;;;;;;;;;;4993628;28;20026;-68
2021/03/04 13:44:01;;;;;;;42.20;16.10;;;;;;;;;;4994733;28;20142;-67
2021/03/04 13:46:26;;;;;;;31.88;14.23;;;;;;;;;;4993771;28;20460;-68
2021/03/04 13:48:51;;;;;;;36.38;14.23;;;;;;;;;;4996434;28;20056;-67
2021/03/04 13:51:17;;;;;;;36.58;16.15;;;;;;;;;;4997674;28;20038;-67
2021/03/04 13:53:42;;;;;;;36.90;16.48;;;;;;;;;;4994953;28;20415;-67
2021/03/04 13:56:08;;;;;;;33.25;14.98;;;;;;;;;;4993805;28;20154;-67
2021/03/04 13:58:33;;;;;;;35.55;13.50;;;;;;;;;;4991405;28;20363;-67
2021/03/04 14:00:58;;;;;;;33.53;15.30;;;;;;;;;;4992071;28;20515;-67
2021/03/04 14:03:23;;;;;;;39.55;16.25;;;;;;;;;;4992000;28;20026;-67
2021/03/04 14:05:49;;;;;;;37.78;15.43;;;;;;;;;;4999608;28;20399;-68
2021/03/04 14:08:14;;;;;;;34.67;15.63;;;;;;;;;;4993265;28;20022;-67